sensor_id;sensor_type;location;lat;lon;timestamp;pressure;altitude;pressure_sealevel;temperature;humidity
13695;BME280;6919;52.344;14.518;2023-01-20T00:01:44;100034.44;;;-1.10;100.00
13695;BME280;6919;52.344;14.518;2023-01-20T00:04:14;100028.06;;;-1.06;100.00
13695;BME280;6919;52.344;14.518;2023-01-20T00:06:45;100025.06;;;-1.00;100.00
13695;BME280;6919;52.344;14.518;2023-01-20T00:09:15;100030.03;;;-1.09;100.00
13695;BME280;6919;52.344;14.518;2023-01-20T00:11:44;100029.47;;;-1.14;100.00
13695;BME280;6919;52.344;14.518;2023-01-20T00:14:14;100037.75;;;-1.20;100.00
13695;BME280;6919;52.344;14.518;2023-01-20T00:16:43;100036.22;;;-1.24;100.00
13695;BME280;6919;52.344;14.518;2023-01-20T00:19:12;100042.44;;;-1.11;100.00
13695;BME280;6919;52.344;14.518;2023-01-20T00:21:41;100047.59;;;-1.10;100.00
13695;BME280;6919;52.344;14.518;2023-01-20T00:24:09;100045.72;;;-1.08;100.00
13695;BME280;6919;52.344;14.518;2023-01-20T00:26:38;100046.28;;;-1.03;100.00
13695;BME280;6919;52.344;14.518;2023-01-20T00:29:07;100032.75;;;-0.97;100.00
13695;BME280;6919;52.344;14.518;2023-01-20T00:31:37;100040.06;;;-0.88;100.00
13695;BME280;6919;52.344;14.518;2023-01-20T00:34:06;100053.81;;;-0.97;100.00
13695;BME280;6919;52.344;14.518;2023-01-20T00:36:34;100041.38;;;-0.95;100.00
13695;BME280;6919;52.344;14.518;2023-01-20T00:39:03;100055.66;;;-0.99;100.00
13695;BME280;6919;52.344;14.518;2023-01-20T00:41:31;100060.66;;;-0.94;100.00
13695;BME280;6919;52.344;14.518;2023-01-20T00:44:00;100063.63;;;-0.86;100.00
13695;BME280;6919;52.344;14.518;2023-01-20T00:46:28;100062.69;;;-0.85;100.00
13695;BME280;6919;52.344;14.518;2023-01-20T00:48:57;100068.16;;;-0.88;100.00
13695;BME280;6919;52.344;14.518;2023-01-20T00:51:26;100062.91;;;-0.88;100.00
13695;BME280;6919;52.344;14.518;2023-01-20T00:53:54;100072.47;;;-0.87;100.00
13695;BME280;6919;52.344;14.518;2023-01-20T00:56:22;100073.22;;;-0.85;100.00
13695;BME280;6919;52.344;14.518;2023-01-20T00:58:51;100080.66;;;-0.92;100.00
13695;BME280;6919;52.344;14.518;2023-01-20T01:01:21;100081.50;;;-0.91;100.00
13695;BME280;6919;52.344;14.518;2023-01-20T01:03:52;100083.94;;;-0.74;100.00
13695;BME280;6919;52.344;14.518;2023-01-20T01:06:22;100087.91;;;-0.41;100.00
13695;BME280;6919;52.344;14.518;2023-01-20T01:08:50;100081.53;;;-0.51;100.00
13695;BME280;6919;52.344;14.518;2023-01-20T01:11:18;100100.19;;;-0.68;100.00
13695;BME280;6919;52.344;14.518;2023-01-20T01:13:47;100104.59;;;-0.68;100.00
13695;BME280;6919;52.344;14.518;2023-01-20T01:16:15;100101.41;;;-0.59;100.00
13695;BME280;6919;52.344;14.518;2023-01-20T01:18:43;100112.41;;;-0.67;100.00
13695;BME280;6919;52.344;14.518;2023-01-20T01:21:15;100116.06;;;-0.69;100.00
13695;BME280;6919;52.344;14.518;2023-01-20T01:23:45;100117.34;;;-0.48;100.00
13695;BME280;6919;52.344;14.518;2023-01-20T01:26:13;100121.56;;;-0.32;100.00
13695;BME280;6919;52.344;14.518;2023-01-20T01:28:42;100118.84;;;-0.04;100.00
13695;BME280;6919;52.344;14.518;2023-01-20T01:31:10;100121.41;;;-0.16;100.00
13695;BME280;6919;52.344;14.518;2023-01-20T01:33:38;100122.19;;;-0.14;100.00
13695;BME280;6919;52.344;14.518;2023-01-20T01:36:14;100125.72;;;-0.15;100.00
13695;BME280;6919;52.344;14.518;2023-01-20T01:38:44;100131.56;;;-0.10;100.00
13695;BME280;6919;52.344;14.518;2023-01-20T01:41:25;100133.72;;;-0.17;100.00
13695;BME280;6919;52.344;14.518;2023-01-20T01:44:04;100136.66;;;-0.07;100.00
13695;BME280;6919;52.344;14.518;2023-01-20T01:46:33;100127.75;;;0.08;100.00
13695;BME280;6919;52.344;14.518;2023-01-20T01:49:07;100132.78;;;-0.02;100.00
13695;BME280;6919;52.344;14.518;2023-01-20T01:51:41;100128.84;;;0.18;100.00
13695;BME280;6919;52.344;14.518;2023-01-20T01:54:17;100137.03;;;0.14;100.00
13695;BME280;6919;52.344;14.518;2023-01-20T01:56:48;100135.22;;;-0.13;100.00
13695;BME280;6919;52.344;14.518;2023-01-20T01:59:18;100143.81;;;-0.23;100.00
13695;BME280;6919;52.344;14.518;2023-01-20T02:01:50;100148.44;;;-0.27;100.00
13695;BME280;6919;52.344;14.518;2023-01-20T02:04:21;100154.66;;;-0.28;100.00
13695;BME280;6919;52.344;14.518;2023-01-20T02:06:53;100162.63;;;-0.15;100.00
13695;BME280;6919;52.344;14.518;2023-01-20T02:09:25;100163.00;;;-0.07;100.00
13695;BME280;6919;52.344;14.518;2023-01-20T02:11:59;100169.13;;;-0.21;100.00
13695;BME280;6919;52.344;14.518;2023-01-20T02:14:33;100174.69;;;0.01;100.00
13695;BME280;6919;52.344;14.518;2023-01-20T02:17:11;100171.63;;;-0.05;100.00
13695;BME280;6919;52.344;14.518;2023-01-20T02:20:30;100172.88;;;-0.11;100.00
13695;BME280;6919;52.344;14.518;2023-01-20T02:23:11;100186.88;;;0.04;100.00
13695;BME280;6919;52.344;14.518;2023-01-20T02:26:06;100188.31;;;0.22;100.00
13695;BME280;6919;52.344;14.518;2023-01-20T02:29:29;100191.34;;;0.16;100.00
13695;BME280;6919;52.344;14.518;2023-01-20T02:32:20;100185.63;;;0.36;100.00
13695;BME280;6919;52.344;14.518;2023-01-20T02:34:56;100186.63;;;0.34;100.00
13695;BME280;6919;52.344;14.518;2023-01-20T02:37:31;100188.78;;;0.41;100.00
13695;BME280;6919;52.344;14.518;2023-01-20T02:40:21;100192.78;;;0.34;100.00
13695;BME280;6919;52.344;14.518;2023-01-20T02:43:03;100203.41;;;0.33;100.00
13695;BME280;6919;52.344;14.518;2023-01-20T02:45:45;100209.09;;;0.27;100.00
13695;BME280;6919;52.344;14.518;2023-01-20T02:48:23;100217.13;;;0.25;100.00
13695;BME280;6919;52.344;14.518;2023-01-20T02:50:58;100218.44;;;0.18;100.00
13695;BME280;6919;52.344;14.518;2023-01-20T02:53:37;100219.81;;;-0.03;100.00
13695;BME280;6919;52.344;14.518;2023-01-20T02:56:10;100217.09;;;-0.02;100.00
13695;BME280;6919;52.344;14.518;2023-01-20T02:58:46;100216.41;;;-0.05;100.00
13695;BME280;6919;52.344;14.518;2023-01-20T03:01:22;100228.56;;;-0.03;100.00
13695;BME280;6919;52.344;14.518;2023-01-20T03:03:58;100229.75;;;0.06;100.00
13695;BME280;6919;52.344;14.518;2023-01-20T03:06:33;100227.53;;;0.00;100.00
13695;BME280;6919;52.344;14.518;2023-01-20T03:09:09;100228.34;;;0.15;100.00
13695;BME280;6919;52.344;14.518;2023-01-20T03:11:45;100231.44;;;0.07;100.00
13695;BME280;6919;52.344;14.518;2023-01-20T03:14:15;100235.22;;;0.03;100.00
13695;BME280;6919;52.344;14.518;2023-01-20T03:16:44;100227.16;;;-0.08;100.00
13695;BME280;6919;52.344;14.518;2023-01-20T03:19:17;100234.97;;;-0.07;100.00
13695;BME280;6919;52.344;14.518;2023-01-20T03:21:47;100237.31;;;-0.02;100.00
13695;BME280;6919;52.344;14.518;2023-01-20T03:24:15;100239.78;;;-0.13;100.00
13695;BME280;6919;52.344;14.518;2023-01-20T03:26:44;100246.81;;;-0.14;100.00
13695;BME280;6919;52.344;14.518;2023-01-20T03:29:12;100250.97;;;-0.10;100.00
13695;BME280;6919;52.344;14.518;2023-01-20T03:31:45;100257.09;;;-0.09;100.00
13695;BME280;6919;52.344;14.518;2023-01-20T03:34:20;100262.25;;;-0.08;100.00
13695;BME280;6919;52.344;14.518;2023-01-20T03:36:52;100262.44;;;0.03;100.00
13695;BME280;6919;52.344;14.518;2023-01-20T03:39:22;100262.25;;;-0.08;100.00
13695;BME280;6919;52.344;14.518;2023-01-20T03:42:05;100271.41;;;-0.13;100.00
13695;BME280;6919;52.344;14.518;2023-01-20T03:44:58;100270.72;;;-0.17;100.00
13695;BME280;6919;52.344;14.518;2023-01-20T03:47:46;100274.75;;;-0.11;100.00
13695;BME280;6919;52.344;14.518;2023-01-20T03:50:32;100284.47;;;-0.12;100.00
13695;BME280;6919;52.344;14.518;2023-01-20T03:53:14;100286.84;;;-0.07;100.00
13695;BME280;6919;52.344;14.518;2023-01-20T03:55:49;100286.25;;;0.02;100.00
13695;BME280;6919;52.344;14.518;2023-01-20T03:58:24;100286.06;;;0.05;100.00
13695;BME280;6919;52.344;14.518;2023-01-20T04:00:55;100289.25;;;0.10;100.00
13695;BME280;6919;52.344;14.518;2023-01-20T04:03:29;100284.63;;;0.14;100.00
13695;BME280;6919;52.344;14.518;2023-01-20T04:06:02;100290.63;;;0.30;100.00
13695;BME280;6919;52.344;14.518;2023-01-20T04:08:35;100295.88;;;0.30;100.00
13695;BME280;6919;52.344;14.518;2023-01-20T04:11:07;100295.16;;;0.28;100.00
13695;BME280;6919;52.344;14.518;2023-01-20T04:13:35;100298.53;;;0.30;100.00
13695;BME280;6919;52.344;14.518;2023-01-20T04:16:11;100303.59;;;0.33;100.00
13695;BME280;6919;52.344;14.518;2023-01-20T04:18:42;100310.38;;;0.37;100.00
13695;BME280;6919;52.344;14.518;2023-01-20T04:21:18;100306.59;;;0.41;100.00
13695;BME280;6919;52.344;14.518;2023-01-20T04:23:54;100310.09;;;0.41;100.00
13695;BME280;6919;52.344;14.518;2023-01-20T04:26:23;100318.66;;;0.45;100.00
13695;BME280;6919;52.344;14.518;2023-01-20T04:28:51;100315.16;;;0.44;100.00
13695;BME280;6919;52.344;14.518;2023-01-20T04:31:19;100316.47;;;0.51;100.00
13695;BME280;6919;52.344;14.518;2023-01-20T04:33:57;100313.50;;;0.43;100.00
13695;BME280;6919;52.344;14.518;2023-01-20T04:36:26;100326.59;;;0.45;100.00
13695;BME280;6919;52.344;14.518;2023-01-20T04:38:55;100322.69;;;0.50;100.00
13695;BME280;6919;52.344;14.518;2023-01-20T04:41:23;100323.25;;;0.55;100.00
13695;BME280;6919;52.344;14.518;2023-01-20T04:43:51;100323.44;;;0.52;100.00
13695;BME280;6919;52.344;14.518;2023-01-20T04:46:19;100330.97;;;0.58;100.00
13695;BME280;6919;52.344;14.518;2023-01-20T04:48:48;100329.06;;;0.60;100.00
13695;BME280;6919;52.344;14.518;2023-01-20T04:51:16;100343.28;;;0.58;100.00
13695;BME280;6919;52.344;14.518;2023-01-20T04:53:45;100344.03;;;0.74;100.00
13695;BME280;6919;52.344;14.518;2023-01-20T04:56:14;100340.91;;;0.67;100.00
13695;BME280;6919;52.344;14.518;2023-01-20T04:58:43;100346.41;;;0.64;100.00
13695;BME280;6919;52.344;14.518;2023-01-20T05:01:11;100344.34;;;0.55;100.00
13695;BME280;6919;52.344;14.518;2023-01-20T05:03:39;100345.84;;;0.59;100.00
13695;BME280;6919;52.344;14.518;2023-01-20T05:06:09;100354.03;;;0.55;100.00
13695;BME280;6919;52.344;14.518;2023-01-20T05:08:37;100358.84;;;0.62;100.00
13695;BME280;6919;52.344;14.518;2023-01-20T05:11:07;100363.22;;;0.76;100.00
13695;BME280;6919;52.344;14.518;2023-01-20T05:13:35;100360.63;;;0.62;100.00
13695;BME280;6919;52.344;14.518;2023-01-20T05:16:06;100367.41;;;0.66;100.00
13695;BME280;6919;52.344;14.518;2023-01-20T05:18:35;100370.16;;;0.64;100.00
13695;BME280;6919;52.344;14.518;2023-01-20T05:21:04;100377.09;;;0.65;100.00
13695;BME280;6919;52.344;14.518;2023-01-20T05:23:34;100378.66;;;0.82;100.00
13695;BME280;6919;52.344;14.518;2023-01-20T05:26:03;100386.38;;;0.85;100.00
13695;BME280;6919;52.344;14.518;2023-01-20T05:28:32;100386.69;;;0.80;100.00
13695;BME280;6919;52.344;14.518;2023-01-20T05:31:01;100386.91;;;0.63;100.00
13695;BME280;6919;52.344;14.518;2023-01-20T05:33:29;100396.25;;;0.55;100.00
13695;BME280;6919;52.344;14.518;2023-01-20T05:35:57;100405.09;;;0.68;100.00
13695;BME280;6919;52.344;14.518;2023-01-20T05:38:26;100398.59;;;0.59;100.00
13695;BME280;6919;52.344;14.518;2023-01-20T05:40:59;100410.75;;;0.62;100.00
13695;BME280;6919;52.344;14.518;2023-01-20T05:43:27;100400.28;;;0.60;100.00
13695;BME280;6919;52.344;14.518;2023-01-20T05:45:57;100398.13;;;0.67;100.00
13695;BME280;6919;52.344;14.518;2023-01-20T05:48:25;100408.91;;;0.90;100.00
13695;BME280;6919;52.344;14.518;2023-01-20T05:50:53;100403.41;;;0.53;100.00
13695;BME280;6919;52.344;14.518;2023-01-20T05:53:22;100414.41;;;0.59;100.00
13695;BME280;6919;52.344;14.518;2023-01-20T05:55:58;100420.47;;;0.61;100.00
13695;BME280;6919;52.344;14.518;2023-01-20T05:58:28;100432.31;;;0.68;100.00
13695;BME280;6919;52.344;14.518;2023-01-20T06:01:05;100435.16;;;0.65;100.00
13695;BME280;6919;52.344;14.518;2023-01-20T06:03:33;100441.47;;;0.63;100.00
13695;BME280;6919;52.344;14.518;2023-01-20T06:06:05;100446.06;;;0.73;100.00
13695;BME280;6919;52.344;14.518;2023-01-20T06:08:34;100452.38;;;0.71;100.00
13695;BME280;6919;52.344;14.518;2023-01-20T06:11:02;100453.53;;;0.67;100.00
13695;BME280;6919;52.344;14.518;2023-01-20T06:13:30;100461.81;;;0.61;100.00
13695;BME280;6919;52.344;14.518;2023-01-20T06:15:58;100469.91;;;0.58;100.00
13695;BME280;6919;52.344;14.518;2023-01-20T06:18:28;100465.50;;;0.58;100.00
13695;BME280;6919;52.344;14.518;2023-01-20T06:20:57;100469.09;;;0.57;100.00
13695;BME280;6919;52.344;14.518;2023-01-20T06:23:26;100478.41;;;0.63;100.00
13695;BME280;6919;52.344;14.518;2023-01-20T06:25:59;100478.50;;;0.61;100.00
13695;BME280;6919;52.344;14.518;2023-01-20T06:28:27;100484.50;;;0.63;100.00
13695;BME280;6919;52.344;14.518;2023-01-20T06:31:00;100486.69;;;0.57;100.00
13695;BME280;6919;52.344;14.518;2023-01-20T06:33:31;100492.41;;;0.63;100.00
13695;BME280;6919;52.344;14.518;2023-01-20T06:36:01;100484.06;;;0.57;100.00
13695;BME280;6919;52.344;14.518;2023-01-20T06:38:32;100490.38;;;0.54;100.00
13695;BME280;6919;52.344;14.518;2023-01-20T06:41:03;100498.38;;;0.53;100.00
13695;BME280;6919;52.344;14.518;2023-01-20T06:43:33;100498.09;;;0.57;100.00
13695;BME280;6919;52.344;14.518;2023-01-20T06:46:09;100508.75;;;0.56;100.00
13695;BME280;6919;52.344;14.518;2023-01-20T06:48:40;100512.28;;;0.55;100.00
13695;BME280;6919;52.344;14.518;2023-01-20T06:51:11;100504.50;;;0.53;100.00
13695;BME280;6919;52.344;14.518;2023-01-20T06:53:40;100504.88;;;0.47;100.00
13695;BME280;6919;52.344;14.518;2023-01-20T06:56:10;100507.03;;;0.55;100.00
13695;BME280;6919;52.344;14.518;2023-01-20T06:58:39;100522.09;;;0.53;100.00
13695;BME280;6919;52.344;14.518;2023-01-20T07:01:11;100522.31;;;0.64;100.00
13695;BME280;6919;52.344;14.518;2023-01-20T07:03:42;100519.56;;;0.65;100.00
13695;BME280;6919;52.344;14.518;2023-01-20T07:06:15;100519.38;;;0.54;100.00
13695;BME280;6919;52.344;14.518;2023-01-20T07:08:45;100518.44;;;0.55;100.00
13695;BME280;6919;52.344;14.518;2023-01-20T07:11:13;100528.44;;;0.50;100.00
13695;BME280;6919;52.344;14.518;2023-01-20T07:13:41;100530.88;;;0.53;100.00
13695;BME280;6919;52.344;14.518;2023-01-20T07:16:10;100534.94;;;0.59;100.00
13695;BME280;6919;52.344;14.518;2023-01-20T07:18:46;100542.94;;;0.57;100.00
13695;BME280;6919;52.344;14.518;2023-01-20T07:21:15;100546.41;;;0.72;100.00
13695;BME280;6919;52.344;14.518;2023-01-20T07:23:44;100556.88;;;0.59;100.00
13695;BME280;6919;52.344;14.518;2023-01-20T07:26:16;100552.28;;;0.63;100.00
13695;BME280;6919;52.344;14.518;2023-01-20T07:28:46;100563.66;;;0.63;100.00
13695;BME280;6919;52.344;14.518;2023-01-20T07:31:17;100565.75;;;0.86;100.00
13695;BME280;6919;52.344;14.518;2023-01-20T07:33:48;100563.19;;;0.71;100.00
13695;BME280;6919;52.344;14.518;2023-01-20T07:36:17;100561.97;;;0.76;100.00
13695;BME280;6919;52.344;14.518;2023-01-20T07:38:47;100572.44;;;0.78;100.00
13695;BME280;6919;52.344;14.518;2023-01-20T07:41:17;100566.59;;;0.59;100.00
13695;BME280;6919;52.344;14.518;2023-01-20T07:43:48;100583.75;;;0.66;100.00
13695;BME280;6919;52.344;14.518;2023-01-20T07:46:18;100577.69;;;0.64;100.00
13695;BME280;6919;52.344;14.518;2023-01-20T07:48:48;100585.81;;;0.75;100.00
13695;BME280;6919;52.344;14.518;2023-01-20T07:51:16;100592.59;;;0.79;100.00
13695;BME280;6919;52.344;14.518;2023-01-20T07:53:47;100594.19;;;0.81;100.00
13695;BME280;6919;52.344;14.518;2023-01-20T07:56:19;100591.38;;;0.70;100.00
13695;BME280;6919;52.344;14.518;2023-01-20T07:58:47;100599.88;;;0.75;100.00
13695;BME280;6919;52.344;14.518;2023-01-20T08:01:20;100597.59;;;0.83;100.00
13695;BME280;6919;52.344;14.518;2023-01-20T08:03:50;100598.16;;;0.74;100.00
13695;BME280;6919;52.344;14.518;2023-01-20T08:06:21;100602.78;;;0.71;100.00
13695;BME280;6919;52.344;14.518;2023-01-20T08:08:50;100596.63;;;0.56;100.00
13695;BME280;6919;52.344;14.518;2023-01-20T08:11:20;100607.28;;;0.69;100.00
13695;BME280;6919;52.344;14.518;2023-01-20T08:13:49;100599.38;;;0.69;100.00
13695;BME280;6919;52.344;14.518;2023-01-20T08:16:18;100603.34;;;0.76;100.00
13695;BME280;6919;52.344;14.518;2023-01-20T08:18:46;100597.88;;;0.79;100.00
13695;BME280;6919;52.344;14.518;2023-01-20T08:21:20;100601.03;;;0.99;100.00
13695;BME280;6919;52.344;14.518;2023-01-20T08:23:49;100610.53;;;0.88;100.00
13695;BME280;6919;52.344;14.518;2023-01-20T08:26:18;100617.31;;;0.92;100.00
13695;BME280;6919;52.344;14.518;2023-01-20T08:28:46;100609.22;;;1.09;100.00
13695;BME280;6919;52.344;14.518;2023-01-20T08:31:18;100615.03;;;1.00;100.00
13695;BME280;6919;52.344;14.518;2023-01-20T08:33:51;100620.13;;;1.03;100.00
13695;BME280;6919;52.344;14.518;2023-01-20T08:36:24;100616.38;;;1.07;100.00
13695;BME280;6919;52.344;14.518;2023-01-20T08:38:55;100621.72;;;0.91;100.00
13695;BME280;6919;52.344;14.518;2023-01-20T08:41:27;100631.47;;;0.91;100.00
13695;BME280;6919;52.344;14.518;2023-01-20T08:43:57;100630.69;;;1.03;100.00
13695;BME280;6919;52.344;14.518;2023-01-20T08:46:26;100633.63;;;0.98;100.00
13695;BME280;6919;52.344;14.518;2023-01-20T08:48:55;100621.00;;;1.03;100.00
13695;BME280;6919;52.344;14.518;2023-01-20T08:51:29;100636.53;;;1.08;100.00
13695;BME280;6919;52.344;14.518;2023-01-20T08:53:58;100637.84;;;1.15;100.00
13695;BME280;6919;52.344;14.518;2023-01-20T08:56:27;100642.75;;;1.07;100.00
13695;BME280;6919;52.344;14.518;2023-01-20T08:58:56;100646.63;;;0.87;100.00
13695;BME280;6919;52.344;14.518;2023-01-20T09:01:28;100657.00;;;0.90;100.00
13695;BME280;6919;52.344;14.518;2023-01-20T09:03:57;100658.03;;;0.88;100.00
13695;BME280;6919;52.344;14.518;2023-01-20T09:06:40;100656.91;;;0.92;100.00
13695;BME280;6919;52.344;14.518;2023-01-20T09:09:09;100674.44;;;0.93;100.00
13695;BME280;6919;52.344;14.518;2023-01-20T09:11:39;100675.41;;;1.06;100.00
13695;BME280;6919;52.344;14.518;2023-01-20T09:14:10;100689.06;;;1.12;100.00
13695;BME280;6919;52.344;14.518;2023-01-20T09:16:38;100683.41;;;1.04;100.00
13695;BME280;6919;52.344;14.518;2023-01-20T09:19:06;100690.03;;;1.25;100.00
13695;BME280;6919;52.344;14.518;2023-01-20T09:21:35;100692.59;;;1.27;100.00
13695;BME280;6919;52.344;14.518;2023-01-20T09:24:05;100696.81;;;1.29;100.00
13695;BME280;6919;52.344;14.518;2023-01-20T09:26:34;100696.19;;;1.40;100.00
13695;BME280;6919;52.344;14.518;2023-01-20T09:29:11;100694.16;;;1.01;100.00
13695;BME280;6919;52.344;14.518;2023-01-20T09:31:42;100704.09;;;1.12;100.00
13695;BME280;6919;52.344;14.518;2023-01-20T09:34:15;100703.41;;;1.08;100.00
13695;BME280;6919;52.344;14.518;2023-01-20T09:36:49;100715.94;;;1.05;100.00
13695;BME280;6919;52.344;14.518;2023-01-20T09:39:20;100723.31;;;1.14;100.00
13695;BME280;6919;52.344;14.518;2023-01-20T09:42:24;100725.88;;;1.29;100.00
13695;BME280;6919;52.344;14.518;2023-01-20T09:45:28;100738.81;;;1.48;100.00
13695;BME280;6919;52.344;14.518;2023-01-20T09:48:11;100737.31;;;1.58;100.00
13695;BME280;6919;52.344;14.518;2023-01-20T09:51:01;100736.41;;;1.15;100.00
13695;BME280;6919;52.344;14.518;2023-01-20T09:53:58;100736.53;;;1.28;100.00
13695;BME280;6919;52.344;14.518;2023-01-20T09:56:35;100733.13;;;1.12;100.00
13695;BME280;6919;52.344;14.518;2023-01-20T09:59:11;100737.25;;;1.02;100.00
13695;BME280;6919;52.344;14.518;2023-01-20T10:01:47;100729.06;;;1.20;100.00
13695;BME280;6919;52.344;14.518;2023-01-20T10:04:24;100732.66;;;1.33;100.00
13695;BME280;6919;52.344;14.518;2023-01-20T10:07:06;100736.16;;;1.20;100.00
13695;BME280;6919;52.344;14.518;2023-01-20T10:09:40;100738.91;;;1.46;100.00
13695;BME280;6919;52.344;14.518;2023-01-20T10:12:23;100729.75;;;1.24;100.00
13695;BME280;6919;52.344;14.518;2023-01-20T10:15:00;100735.78;;;1.26;100.00
13695;BME280;6919;52.344;14.518;2023-01-20T10:17:36;100732.09;;;1.28;100.00
13695;BME280;6919;52.344;14.518;2023-01-20T10:20:13;100734.66;;;1.30;100.00
13695;BME280;6919;52.344;14.518;2023-01-20T10:22:50;100726.41;;;1.20;100.00
13695;BME280;6919;52.344;14.518;2023-01-20T10:25:23;100723.91;;;1.33;100.00
13695;BME280;6919;52.344;14.518;2023-01-20T10:27:59;100729.66;;;1.25;100.00
13695;BME280;6919;52.344;14.518;2023-01-20T10:30:34;100728.59;;;1.28;100.00
13695;BME280;6919;52.344;14.518;2023-01-20T10:33:09;100733.34;;;1.37;100.00
13695;BME280;6919;52.344;14.518;2023-01-20T10:35:43;100739.25;;;1.26;100.00
13695;BME280;6919;52.344;14.518;2023-01-20T10:38:25;100742.25;;;1.20;100.00
13695;BME280;6919;52.344;14.518;2023-01-20T10:41:05;100750.41;;;1.17;100.00
13695;BME280;6919;52.344;14.518;2023-01-20T10:43:36;100755.16;;;1.11;100.00
13695;BME280;6919;52.344;14.518;2023-01-20T10:46:21;100741.41;;;1.06;100.00
13695;BME280;6919;52.344;14.518;2023-01-20T10:49:40;100746.97;;;1.15;100.00
13695;BME280;6919;52.344;14.518;2023-01-20T10:52:38;100748.72;;;1.01;100.00
13695;BME280;6919;52.344;14.518;2023-01-20T10:55:27;100753.22;;;1.28;100.00
13695;BME280;6919;52.344;14.518;2023-01-20T10:58:09;100747.28;;;1.25;100.00
13695;BME280;6919;52.344;14.518;2023-01-20T11:00:43;100749.91;;;1.25;100.00
13695;BME280;6919;52.344;14.518;2023-01-20T11:03:15;100751.34;;;1.30;100.00
13695;BME280;6919;52.344;14.518;2023-01-20T11:05:47;100755.69;;;1.31;100.00
13695;BME280;6919;52.344;14.518;2023-01-20T11:08:19;100750.31;;;1.47;100.00
13695;BME280;6919;52.344;14.518;2023-01-20T11:10:53;100752.03;;;1.48;100.00
13695;BME280;6919;52.344;14.518;2023-01-20T11:13:22;100746.56;;;1.37;100.00
13695;BME280;6919;52.344;14.518;2023-01-20T11:15:55;100749.28;;;1.35;100.00
13695;BME280;6919;52.344;14.518;2023-01-20T11:18:28;100748.25;;;1.38;100.00
13695;BME280;6919;52.344;14.518;2023-01-20T11:21:01;100751.44;;;1.43;100.00
13695;BME280;6919;52.344;14.518;2023-01-20T11:23:38;100756.91;;;1.54;100.00
13695;BME280;6919;52.344;14.518;2023-01-20T11:26:18;100757.56;;;1.29;100.00
13695;BME280;6919;52.344;14.518;2023-01-20T11:28:52;100764.84;;;1.26;100.00
13695;BME280;6919;52.344;14.518;2023-01-20T11:31:36;100768.81;;;1.33;100.00
13695;BME280;6919;52.344;14.518;2023-01-20T11:34:21;100770.22;;;1.38;100.00
13695;BME280;6919;52.344;14.518;2023-01-20T11:37:16;100777.00;;;1.28;100.00
13695;BME280;6919;52.344;14.518;2023-01-20T11:40:02;100782.31;;;1.42;100.00
13695;BME280;6919;52.344;14.518;2023-01-20T11:42:43;100777.69;;;1.46;100.00
13695;BME280;6919;52.344;14.518;2023-01-20T11:45:29;100776.34;;;1.39;100.00
13695;BME280;6919;52.344;14.518;2023-01-20T11:48:04;100778.50;;;1.32;100.00
13695;BME280;6919;52.344;14.518;2023-01-20T11:50:36;100780.47;;;1.29;100.00
13695;BME280;6919;52.344;14.518;2023-01-20T11:53:18;100786.25;;;1.35;100.00
13695;BME280;6919;52.344;14.518;2023-01-20T11:55:51;100787.19;;;1.34;100.00
13695;BME280;6919;52.344;14.518;2023-01-20T11:58:22;100790.41;;;1.39;100.00
13695;BME280;6919;52.344;14.518;2023-01-20T12:00:59;100795.69;;;1.39;100.00
13695;BME280;6919;52.344;14.518;2023-01-20T12:04:08;100801.25;;;1.35;100.00
13695;BME280;6919;52.344;14.518;2023-01-20T12:06:52;100808.53;;;1.31;100.00
13695;BME280;6919;52.344;14.518;2023-01-20T12:09:28;100812.69;;;1.35;100.00
13695;BME280;6919;52.344;14.518;2023-01-20T12:12:03;100819.00;;;1.47;100.00
13695;BME280;6919;52.344;14.518;2023-01-20T12:14:39;100819.38;;;1.41;100.00
13695;BME280;6919;52.344;14.518;2023-01-20T12:17:29;100825.16;;;1.47;100.00
13695;BME280;6919;52.344;14.518;2023-01-20T12:20:09;100822.41;;;1.49;100.00
13695;BME280;6919;52.344;14.518;2023-01-20T12:22:47;100826.53;;;1.39;100.00
13695;BME280;6919;52.344;14.518;2023-01-20T12:25:23;100819.81;;;1.33;100.00
13695;BME280;6919;52.344;14.518;2023-01-20T12:27:55;100821.16;;;1.40;100.00
13695;BME280;6919;52.344;14.518;2023-01-20T12:30:41;100829.34;;;1.36;100.00
13695;BME280;6919;52.344;14.518;2023-01-20T12:33:22;100831.09;;;1.51;100.00
13695;BME280;6919;52.344;14.518;2023-01-20T12:36:52;100823.97;;;1.37;100.00
13695;BME280;6919;52.344;14.518;2023-01-20T12:39:37;100836.78;;;1.59;100.00
13695;BME280;6919;52.344;14.518;2023-01-20T12:42:48;100846.56;;;1.57;100.00
13695;BME280;6919;52.344;14.518;2023-01-20T12:45:38;100850.13;;;1.42;100.00
13695;BME280;6919;52.344;14.518;2023-01-20T12:48:28;100850.00;;;1.29;100.00
13695;BME280;6919;52.344;14.518;2023-01-20T12:51:18;100850.31;;;1.39;100.00
13695;BME280;6919;52.344;14.518;2023-01-20T12:54:40;100847.50;;;1.42;100.00
13695;BME280;6919;52.344;14.518;2023-01-20T12:57:30;100845.44;;;1.61;100.00
13695;BME280;6919;52.344;14.518;2023-01-20T13:00:29;100851.94;;;1.55;100.00
13695;BME280;6919;52.344;14.518;2023-01-20T13:06:46;100868.22;;;1.34;100.00
13695;BME280;6919;52.344;14.518;2023-01-20T13:09:35;100868.97;;;1.36;100.00
13695;BME280;6919;52.344;14.518;2023-01-20T13:12:30;100869.53;;;1.56;100.00
13695;BME280;6919;52.344;14.518;2023-01-20T13:15:16;100868.31;;;1.62;100.00
13695;BME280;6919;52.344;14.518;2023-01-20T13:18:03;100880.72;;;1.46;100.00
13695;BME280;6919;52.344;14.518;2023-01-20T13:20:37;100878.63;;;1.37;100.00
13695;BME280;6919;52.344;14.518;2023-01-20T13:23:10;100885.38;;;1.27;100.00
13695;BME280;6919;52.344;14.518;2023-01-20T13:25:43;100885.13;;;1.31;100.00
13695;BME280;6919;52.344;14.518;2023-01-20T13:28:17;100892.97;;;1.33;100.00
13695;BME280;6919;52.344;14.518;2023-01-20T13:30:48;100897.72;;;1.26;100.00